createdAt,value
2023-12-29T00:00:00.697Z,0.0
2023-12-29T00:05:00.909Z,0.0
2023-12-29T00:10:01.044Z,0.0
2023-12-29T00:15:00.702Z,0.0
2023-12-29T00:20:00.748Z,0.0
2023-12-29T00:25:00.976Z,0.0
2023-12-29T00:30:00.687Z,0.0
2023-12-29T00:35:00.824Z,0.0
2023-12-29T00:40:00.833Z,0.0
2023-12-29T00:45:00.698Z,0.0
2023-12-29T00:50:00.764Z,0.0
2023-12-29T00:55:01.035Z,0.0
2023-12-29T01:00:00.869Z,0.0
2023-12-29T01:05:00.802Z,0.0
2023-12-29T01:10:00.838Z,0.0
2023-12-29T01:15:06.575Z,0.0
2023-12-29T01:20:00.863Z,0.0
2023-12-29T01:25:01.295Z,0.0
2023-12-29T01:30:00.847Z,0.0
2023-12-29T01:35:00.851Z,0.0
2023-12-29T01:40:02.056Z,0.0
2023-12-29T01:45:00.703Z,0.0
2023-12-29T01:50:00.875Z,0.0
2023-12-29T01:55:01.098Z,0.0
2023-12-29T02:05:01.202Z,0.0
2023-12-29T02:10:01.102Z,0.0
2023-12-29T02:15:01.275Z,0.0
2023-12-29T02:20:01.598Z,0.0
2023-12-29T02:25:00.972Z,0.0
2023-12-29T02:30:09.779Z,0.0
2023-12-29T02:35:01.671Z,0.0
2023-12-29T02:40:01.672Z,0.0
2023-12-29T02:45:00.739Z,0.0
2023-12-29T02:50:01.077Z,0.0
2023-12-29T02:55:00.835Z,0.0
2023-12-29T03:00:01.089Z,0.0
2023-12-29T03:05:00.914Z,0.0
2023-12-29T03:10:01.058Z,0.0
2023-12-29T03:15:00.762Z,0.0
2023-12-29T03:20:02.575Z,0.0
2023-12-29T03:25:00.796Z,0.0
2023-12-29T03:30:00.773Z,0.0
2023-12-29T03:35:00.990Z,0.0
2023-12-29T03:40:00.803Z,0.0
2023-12-29T03:45:00.659Z,0.0
2023-12-29T03:50:00.983Z,0.0
2023-12-29T03:55:03.242Z,0.0
2023-12-29T04:00:00.762Z,0.0
2023-12-29T04:05:00.762Z,0.0
2023-12-29T04:10:01.059Z,0.0
2023-12-29T04:15:00.656Z,0.0
2023-12-29T04:20:01.061Z,0.0
2023-12-29T04:25:00.851Z,0.0
2023-12-29T04:30:00.920Z,0.0
2023-12-29T04:35:00.759Z,0.0
2023-12-29T04:40:00.718Z,0.0
2023-12-29T04:45:00.702Z,0.0
2023-12-29T04:50:00.867Z,0.0
2023-12-29T04:55:01.148Z,0.0
2023-12-29T05:00:00.673Z,0.0
2023-12-29T05:05:00.829Z,0.0
2023-12-29T05:10:00.824Z,0.0
2023-12-29T05:15:00.895Z,0.0
2023-12-29T05:20:01.129Z,0.0
2023-12-29T05:25:01.991Z,0.0
2023-12-29T05:30:00.805Z,0.0
2023-12-29T05:35:00.960Z,0.0
2023-12-29T05:40:00.817Z,0.0
2023-12-29T05:45:00.733Z,0.0
2023-12-29T05:50:00.976Z,0.0
2023-12-29T05:55:01.068Z,0.0
2023-12-29T06:00:00.665Z,0.0
2023-12-29T06:05:00.873Z,0.0
2023-12-29T06:10:00.805Z,0.0
2023-12-29T06:15:00.835Z,0.0
2023-12-29T06:20:00.817Z,1096.7
2023-12-29T06:25:00.828Z,1096.7
2023-12-29T06:30:00.746Z,1096.7
2023-12-29T06:35:00.682Z,1096.7
2023-12-29T06:40:00.899Z,1096.7
2023-12-29T06:45:01.150Z,1705.3
2023-12-29T06:50:01.719Z,2193.5
2023-12-29T06:55:01.509Z,2193.5
2023-12-29T07:00:00.683Z,4602.5
2023-12-29T07:05:00.862Z,3290.2
2023-12-29T07:10:01.303Z,2193.5
2023-12-29T07:15:00.693Z,2193.5
2023-12-29T07:20:01.315Z,3290.2
2023-12-29T07:25:00.976Z,2193.5
2023-12-29T07:30:00.955Z,1977.9
2023-12-29T07:35:00.851Z,1489.8
2023-12-29T07:40:01.045Z,3290.2
2023-12-29T07:45:00.764Z,3290.2
2023-12-29T07:50:00.904Z,4386.9
2023-12-29T07:55:00.971Z,4386.9
2023-12-29T08:00:01.286Z,4602.5
2023-12-29T08:05:00.687Z,3290.2
2023-12-29T08:10:01.144Z,3290.2
2023-12-29T08:15:00.737Z,3683.2
2023-12-29T08:20:00.700Z,2586.5
2023-12-29T08:25:00.807Z,3290.2
2023-12-29T08:30:00.706Z,3683.2
2023-12-29T08:35:00.998Z,2586.5
2023-12-29T08:40:02.451Z,7892.7
2023-12-29T08:45:00.731Z,11398.4
2023-12-29T08:50:00.661Z,8989.4
2023-12-29T08:55:00.727Z,6795.9
2023-12-29T09:00:00.710Z,5483.7
2023-12-29T09:05:00.941Z,6580.4
2023-12-29T09:10:01.063Z,6580.4
2023-12-29T09:15:00.672Z,5483.7
2023-12-29T09:20:06.958Z,6580.4
2023-12-29T09:25:00.986Z,5876.7
2023-12-29T09:30:00.765Z,4780.0
2023-12-29T09:35:00.755Z,6580.4
2023-12-29T09:40:00.746Z,7189.0
2023-12-29T09:45:07.003Z,7892.7
2023-12-29T09:50:01.604Z,4780.0
2023-12-29T09:55:01.741Z,6580.4
2023-12-29T10:00:01.659Z,6092.3
2023-12-29T10:05:03.590Z,4995.5
2023-12-29T10:10:01.692Z,7892.7
2023-12-29T10:15:05.992Z,7677.1
2023-12-29T10:20:09.412Z,6795.9
2023-12-29T10:25:18.215Z,4386.9
2023-12-29T10:30:00.704Z,3683.2
2023-12-29T10:35:11.257Z,3290.2
2023-12-29T10:40:00.838Z,3290.2
2023-12-29T10:45:06.840Z,3290.2
2023-12-29T10:50:02.273Z,2193.5
2023-12-29T10:55:05.556Z,3290.2
2023-12-29T11:00:01.104Z,2193.5
2023-12-29T11:05:02.737Z,3290.2
2023-12-29T11:10:07.156Z,3505.7
2023-12-29T11:15:02.804Z,3290.2
2023-12-29T11:20:01.852Z,1705.3
2023-12-29T11:25:01.423Z,2193.5
2023-12-29T11:30:02.460Z,2193.5
2023-12-29T11:35:12.066Z,1977.9
2023-12-29T11:40:14.485Z,2193.5
2023-12-29T11:45:36.045Z,2193.5
2023-12-29T11:50:02.177Z,1096.7
2023-12-29T11:55:08.175Z,2193.5
2023-12-29T12:00:00.796Z,1096.7
2023-12-29T12:05:00.774Z,1096.7
2023-12-29T12:20:03.125Z,1096.7
2023-12-29T12:30:00.829Z,0.0
2023-12-29T12:35:01.105Z,0.0
2023-12-29T12:40:00.730Z,0.0
2023-12-29T12:45:06.597Z,0.0
2023-12-29T12:50:01.316Z,0.0
2023-12-29T12:55:01.014Z,0.0
2023-12-29T13:00:02.425Z,0.0
2023-12-29T13:05:01.317Z,0.0
2023-12-29T13:10:01.799Z,0.0
2023-12-29T13:15:07.644Z,0.0
2023-12-29T13:20:00.846Z,0.0
2023-12-29T13:25:05.280Z,0.0
2023-12-29T13:30:06.132Z,0.0
2023-12-29T13:35:06.822Z,0.0
2023-12-29T13:40:10.314Z,0.0
2023-12-29T13:45:03.390Z,0.0
2023-12-29T13:50:01.160Z,0.0
2023-12-29T13:55:01.237Z,0.0
2023-12-29T14:00:19.024Z,0.0
2023-12-29T14:05:14.753Z,0.0
2023-12-29T14:10:00.851Z,0.0
2023-12-29T14:15:03.828Z,0.0
2023-12-29T14:20:00.743Z,0.0
2023-12-29T14:25:02.795Z,0.0
2023-12-29T14:30:02.450Z,0.0
2023-12-29T14:35:00.705Z,0.0
2023-12-29T14:40:00.769Z,0.0
2023-12-29T14:45:00.726Z,0.0
2023-12-29T14:50:01.077Z,0.0
2023-12-29T14:55:00.771Z,0.0
2023-12-29T15:00:00.903Z,0.0
2023-12-29T15:05:00.765Z,0.0
2023-12-29T15:10:00.955Z,0.0
2023-12-29T15:15:00.953Z,0.0
2023-12-29T15:20:00.685Z,0.0
2023-12-29T15:25:00.739Z,0.0
2023-12-29T15:30:01.181Z,0.0
2023-12-29T15:35:00.720Z,0.0
2023-12-29T15:40:00.789Z,0.0
2023-12-29T15:45:00.734Z,0.0
2023-12-29T15:50:00.761Z,0.0
2023-12-29T15:55:00.746Z,0.0
2023-12-29T16:00:00.764Z,0.0
2023-12-29T16:05:01.017Z,0.0
2023-12-29T16:10:00.788Z,0.0
2023-12-29T16:15:01.013Z,0.0
2023-12-29T16:20:00.748Z,0.0
2023-12-29T16:25:00.759Z,0.0
2023-12-29T16:30:01.071Z,0.0
2023-12-29T16:35:01.132Z,0.0
2023-12-29T16:40:01.093Z,0.0
2023-12-29T16:45:03.663Z,0.0
2023-12-29T16:50:00.679Z,0.0
2023-12-29T16:55:00.752Z,0.0
2023-12-29T17:00:00.706Z,0.0
2023-12-29T17:05:00.706Z,0.0
2023-12-29T17:10:00.717Z,0.0
2023-12-29T17:15:00.785Z,0.0
2023-12-29T17:20:00.730Z,0.0
2023-12-29T17:25:00.706Z,0.0
2023-12-29T17:30:16.851Z,0.0
2023-12-29T17:35:00.763Z,0.0
2023-12-29T17:40:00.802Z,0.0
2023-12-29T17:45:00.694Z,0.0
2023-12-29T17:50:01.608Z,0.0
2023-12-29T17:55:00.853Z,0.0
2023-12-29T18:00:00.832Z,0.0
2023-12-29T18:05:00.978Z,0.0
2023-12-29T18:10:00.755Z,0.0
2023-12-29T18:15:01.028Z,0.0
2023-12-29T18:20:00.816Z,0.0
2023-12-29T18:25:00.907Z,0.0
2023-12-29T18:30:00.783Z,0.0
2023-12-29T18:35:00.707Z,0.0
2023-12-29T18:40:01.042Z,0.0
2023-12-29T18:45:00.758Z,0.0
2023-12-29T18:50:04.988Z,0.0
2023-12-29T18:55:00.709Z,0.0
2023-12-29T19:00:00.757Z,0.0
2023-12-29T19:05:00.790Z,0.0
2023-12-29T19:10:00.780Z,0.0
2023-12-29T19:15:00.892Z,0.0
2023-12-29T19:20:00.655Z,0.0
2023-12-29T19:25:00.823Z,0.0
2023-12-29T19:30:05.976Z,0.0
2023-12-29T19:35:01.065Z,0.0
2023-12-29T19:40:00.791Z,0.0
2023-12-29T19:45:09.245Z,0.0
2023-12-29T19:50:00.760Z,0.0
2023-12-29T19:55:01.273Z,0.0
2023-12-29T20:00:00.769Z,0.0
2023-12-29T20:05:00.706Z,0.0
2023-12-29T20:10:01.773Z,0.0
2023-12-29T20:15:00.774Z,0.0
2023-12-29T20:20:00.786Z,0.0
2023-12-29T20:25:00.730Z,0.0
2023-12-29T20:30:00.805Z,0.0
2023-12-29T20:35:00.864Z,0.0
2023-12-29T20:40:00.741Z,0.0
2023-12-29T20:45:00.799Z,0.0
2023-12-29T20:50:00.778Z,0.0
2023-12-29T20:55:00.975Z,0.0
2023-12-29T21:00:00.793Z,0.0
2023-12-29T21:05:00.696Z,0.0
2023-12-29T21:10:01.022Z,0.0
2023-12-29T21:15:00.762Z,0.0
2023-12-29T21:20:00.754Z,0.0
2023-12-29T21:25:00.840Z,0.0
2023-12-29T21:30:00.747Z,0.0
2023-12-29T21:35:00.682Z,0.0
2023-12-29T21:40:00.774Z,0.0
2023-12-29T21:45:00.749Z,0.0
2023-12-29T21:50:02.674Z,0.0
2023-12-29T21:55:00.765Z,0.0
2023-12-29T22:00:00.720Z,0.0
2023-12-29T22:05:00.982Z,0.0
2023-12-29T22:10:00.804Z,0.0
2023-12-29T22:15:00.821Z,0.0
2023-12-29T22:20:01.041Z,0.0
2023-12-29T22:25:02.171Z,0.0
2023-12-29T22:30:00.973Z,0.0
2023-12-29T22:35:00.998Z,0.0
2023-12-29T22:40:00.666Z,0.0
2023-12-29T22:45:00.820Z,0.0
2023-12-29T22:50:00.705Z,0.0
2023-12-29T22:55:00.698Z,0.0
2023-12-29T23:00:00.714Z,0.0
2023-12-29T23:05:00.936Z,0.0
2023-12-29T23:10:00.750Z,0.0
2023-12-29T23:15:00.801Z,0.0
2023-12-29T23:20:01.163Z,0.0
2023-12-29T23:25:01.102Z,0.0
2023-12-29T23:30:27.634Z,0.0
2023-12-29T23:35:09.959Z,0.0
2023-12-29T23:40:00.761Z,0.0
2023-12-29T23:45:00.736Z,0.0
2023-12-29T23:50:00.935Z,0.0
2023-12-29T23:55:01.017Z,0.0
